Main page


Airports :

Preston, England

Warton Aerodrome

latitude: 53-44-42N, longitude: 2-53-02W, elevation: 17 m

Current weather observation

The report was made 24 minutes ago, at 17:20 UTC
Wind 9 kt from the Northwest
Temperature 7°C
Humidity 61%
Pressure 1033 hPa
Visibility 10 km or more
Few clouds at a height of 3000 ft

METAR: EGNO 201720Z 32009KT 9999 FEW030 07/M00 Q1033

Time: 17:44 (17:44 UTC)


The report was made 3 hours and 45 minutes ago, at 13:59 UTC
Forecast valid from 20 at 15 UTC to 20 at 19 UTC
Wind 7 kt from the North/Northwest
Visibility 10 km or more
Few clouds at a height of 4000 ft

TAF: EGNO 201359Z 2015/2019 34007KT 9999 FEW040

Weather observations and forecasts of more than 4000 airports (METAR and TAF reports).

The available stations are represented by yellow and red dots on the map.

Hover mouse over dot to see the name of the station.

Then click to see weather observations and forecasts.

To change the map : click on the green buttons with a black cross to zoom in, on the green button with a dash to zoom out, or on the green arrows for adjacent maps.